Time;durP1;ratioP1;P1;durP2;ratioP2;P2;SDS_P1;SDS_P2;PMS_P1;PMS_P2;Temp;Humidity;BMP_temperature;BMP_pressure;BME280_temperature;BME280_humidity;BME280_pressure;Samples;Min_cycle;Max_cycle;Signal;HPM_P1;HPM_P2
2022/11/09 00:00:17;;;;;;;11.75;2.67;;;;;;;12.35;85.83;100465.34;5050692;28;20035;-74
2022/11/09 00:02:43;;;;;;;8.95;2.25;;;;;;;12.36;85.23;100466.22;5052098;28;20029;-74
2022/11/09 00:05:08;;;;;;;8.43;2.10;;;;;;;12.35;85.76;100465.34;5050906;28;20334;-74
2022/11/09 00:07:34;;;;;;;12.25;2.53;;;;;;;12.35;85.56;100465.34;5046860;28;20139;-74
2022/11/09 00:09:59;;;;;;;10.95;2.25;;;;;;;12.40;85.66;100468.72;5045446;28;20416;-74
2022/11/09 00:12:25;;;;;;;8.75;2.20;;;;;;;12.41;85.68;100459.84;5047217;28;20073;-74
2022/11/09 00:14:50;;;;;;;10.43;2.15;;;;;;;12.46;85.44;100472.94;5049483;28;20024;-74
2022/11/09 00:17:16;;;;;;;11.57;2.60;;;;;;;12.50;85.27;100460.44;5046289;28;20049;-74
2022/11/09 00:19:41;;;;;;;11.20;2.20;;;;;;;12.50;85.18;100461.28;5049176;28;20017;-74
2022/11/09 00:22:07;;;;;;;10.02;2.22;;;;;;;12.48;85.07;100471.97;5051128;28;20059;-74
2022/11/09 00:24:32;;;;;;;8.45;2.00;;;;;;;12.53;85.06;100473.59;5052910;28;20116;-74
2022/11/09 00:26:57;;;;;;;13.18;2.60;;;;;;;12.51;85.22;100475.44;5032767;28;20052;-74
2022/11/09 00:29:27;;;;;;;9.80;2.65;;;;;;;12.50;85.42;100468.41;5048888;28;20045;-74
2022/11/09 00:31:52;;;;;;;8.45;2.53;;;;;;;12.49;85.51;100462.22;5049184;28;20029;-74
2022/11/09 00:34:18;;;;;;;7.95;2.50;;;;;;;12.47;85.65;100466.72;5048989;28;20036;-74
2022/11/09 00:36:44;;;;;;;7.32;2.20;;;;;;;12.46;85.89;100464.97;5030145;28;20463;-74
2022/11/09 00:39:09;;;;;;;6.60;2.10;;;;;;;12.45;85.56;100463.25;5046030;28;20036;-74
2022/11/09 00:41:35;;;;;;;6.60;2.20;;;;;;;12.43;86.17;100462.44;5044940;28;20036;-74
2022/11/09 00:44:00;;;;;;;14.93;2.35;;;;;;;12.45;86.31;100458.78;5047977;28;20028;-74
2022/11/09 00:46:27;;;;;;;9.85;2.92;;;;;;;12.46;86.50;100459.66;5049325;28;20119;-74
2022/11/09 00:48:54;;;;;;;6.78;2.22;;;;;;;12.49;86.45;100470.19;5046543;28;20404;-74
2022/11/09 00:51:20;;;;;;;8.15;2.63;;;;;;;12.47;86.19;100448.13;5052189;28;20392;-74
2022/11/09 00:53:47;;;;;;;12.73;2.50;;;;;;;12.45;86.64;100456.13;5048066;28;20017;-74
2022/11/09 00:56:13;;;;;;;8.82;2.30;;;;;;;12.44;86.83;100459.72;5046055;28;20033;-74
2022/11/09 00:58:40;;;;;;;8.45;2.50;;;;;;;12.42;86.80;100458.06;5028143;28;20036;-74
2022/11/09 01:01:10;;;;;;;5.97;2.20;;;;;;;12.39;87.01;100455.50;5047440;28;20020;-81
2022/11/09 01:03:36;;;;;;;10.63;2.45;;;;;;;12.39;87.31;100458.16;5039159;28;20033;-81
2022/11/09 01:06:02;;;;;;;6.05;2.17;;;;;;;12.34;87.70;100453.03;5034912;28;20123;-81
2022/11/09 01:08:28;;;;;;;6.07;2.17;;;;;;;12.37;87.58;100457.34;5037687;28;20021;-80
2022/11/09 01:10:54;;;;;;;6.38;1.98;;;;;;;12.38;87.28;100465.25;4986749;28;20064;-81
2022/11/09 01:13:21;;;;;;;6.03;2.00;;;;;;;12.36;87.08;100453.81;5029435;28;20025;-81
2022/11/09 01:15:52;;;;;;;10.25;2.58;;;;;;;12.42;87.35;100455.41;5036013;28;20108;-80
2022/11/09 01:18:19;;;;;;;7.45;2.50;;;;;;;12.44;87.39;100459.72;5032058;28;20458;-80
2022/11/09 01:20:48;;;;;;;6.50;2.53;;;;;;;12.45;87.30;100464.09;5037855;28;20033;-80
2022/11/09 01:23:16;;;;;;;5.57;1.95;;;;;;;12.47;87.41;100472.91;5032880;28;20026;-81
2022/11/09 01:25:42;;;;;;;7.28;2.10;;;;;;;12.52;87.07;100472.72;5015815;28;20432;-80
2022/11/09 01:28:08;;;;;;;8.43;2.85;;;;;;;12.51;87.02;100475.44;5033593;28;20506;-81
2022/11/09 01:30:39;;;;;;;9.32;2.33;;;;;;;12.56;86.73;100479.69;5051020;28;20027;-81
2022/11/09 01:33:08;;;;;;;6.18;2.13;;;;;;;12.57;86.51;100480.53;5043331;28;20103;-74
2022/11/09 01:35:35;;;;;;;7.45;1.90;;;;;;;12.55;86.34;100479.72;5040507;28;20121;-74
2022/11/09 01:38:02;;;;;;;5.70;2.15;;;;;;;12.55;86.17;100485.91;5047781;28;20064;-74
2022/11/09 01:40:29;;;;;;;5.60;2.22;;;;;;;12.59;85.83;100484.03;5041999;28;20029;-74
2022/11/09 01:42:54;;;;;;;11.40;2.28;;;;;;;12.60;85.72;100483.94;5038827;28;20026;-74
2022/11/09 01:45:26;;;;;;;4.65;1.98;;;;;;;12.59;85.65;100478.72;5027952;28;20451;-74
2022/11/09 01:47:58;;;;;;;7.82;2.20;;;;;;;12.57;85.73;100480.53;5038504;28;20063;-74
2022/11/09 01:50:40;;;;;;;7.13;2.13;;;;;;;12.54;85.48;100472.69;5045159;28;20052;-75
2022/11/09 01:53:14;;;;;;;11.32;2.50;;;;;;;12.54;85.54;100484.19;5031238;28;20162;-74
2022/11/09 01:55:41;;;;;;;10.02;2.65;;;;;;;12.52;85.57;100477.19;5034564;28;20036;-74
2022/11/09 01:58:12;;;;;;;10.57;2.50;;;;;;;12.47;85.77;100464.06;5046740;28;20108;-74
2022/11/09 02:00:43;;;;;;;6.63;2.58;;;;;;;12.40;85.48;100462.53;5034975;28;20160;-75
2022/11/09 02:03:17;;;;;;;7.90;2.35;;;;;;;12.39;85.74;100461.69;5051749;28;20039;-74
2022/11/09 02:05:43;;;;;;;10.00;2.33;;;;;;;12.35;85.77;100467.16;5050751;28;20040;-74
2022/11/09 02:08:11;;;;;;;9.15;2.45;;;;;;;12.32;86.00;100477.88;5048635;28;20165;-75
2022/11/09 02:10:44;;;;;;;8.43;2.40;;;;;;;12.31;86.07;100470.81;5052201;28;20048;-74
2022/11/09 02:13:12;;;;;;;6.70;2.30;;;;;;;12.30;86.07;100471.75;5034086;28;20029;-75
2022/11/09 02:15:38;;;;;;;5.80;2.10;;;;;;;12.28;85.92;100466.50;5050820;28;20025;-74
2022/11/09 02:18:04;;;;;;;11.27;2.10;;;;;;;12.26;85.83;100465.69;5037676;28;20037;-74
2022/11/09 02:20:29;;;;;;;7.68;2.28;;;;;;;12.21;86.14;100475.59;5026370;28;20030;-74
2022/11/09 02:22:57;;;;;;;6.30;2.08;;;;;;;12.20;86.39;100472.06;5041779;28;20149;-74
2022/11/09 02:25:23;;;;;;;10.23;2.45;;;;;;;12.19;86.46;100478.31;5033165;28;20916;-74
2022/11/09 02:27:49;;;;;;;6.68;1.92;;;;;;;12.18;86.32;100475.69;5033842;28;20052;-74
2022/11/09 02:30:18;;;;;;;4.78;1.60;;;;;;;12.15;86.42;100478.47;5033811;28;20060;-74
2022/11/09 02:32:44;;;;;;;11.23;2.38;;;;;;;12.13;86.34;100483.81;5050520;28;20043;-74
2022/11/09 02:35:09;;;;;;;8.55;2.58;;;;;;;12.17;86.22;100488.09;5050310;28;20490;-74
2022/11/09 02:37:45;;;;;;;9.07;2.53;;;;;;;12.19;86.06;100485.38;5021704;28;20041;-74
2022/11/09 02:40:32;;;;;;;10.38;2.20;;;;;;;12.20;86.14;100484.47;5038140;28;20029;-74
2022/11/09 02:43:03;;;;;;;8.57;2.30;;;;;;;12.21;86.20;100489.72;5048176;28;20045;-74
2022/11/09 02:45:30;;;;;;;;;;;;;;;12.25;86.03;100485.19;5026966;28;20080;-74
2022/11/09 02:47:55;;;;;;;9.23;2.22;;;;;;;12.26;85.71;100481.59;5040639;28;20028;-75
2022/11/09 02:50:21;;;;;;;7.00;2.10;;;;;;;12.26;85.10;100477.19;5033445;28;20075;-75
2022/11/09 02:52:46;;;;;;;9.18;2.03;;;;;;;12.29;84.82;100464.69;5017688;28;20068;-75
2022/11/09 02:55:12;;;;;;;6.75;2.22;;;;;;;12.25;85.51;100463.94;5025533;28;20418;-74
2022/11/09 02:57:38;;;;;;;11.05;2.50;;;;;;;12.25;85.13;100459.50;5010635;28;20033;-75
2022/11/09 03:00:05;;;;;;;11.85;2.45;;;;;;;12.25;85.16;100474.56;5029587;28;20397;-75
2022/11/09 03:02:32;;;;;;;10.80;2.65;;;;;;;12.24;85.42;100456.91;5029607;28;20051;-74
2022/11/09 03:04:57;;;;;;;5.97;2.10;;;;;;;12.27;85.01;100465.63;5029869;28;20052;-75
2022/11/09 03:07:24;;;;;;;5.40;2.00;;;;;;;12.25;85.06;100459.50;5029361;28;20116;-75
2022/11/09 03:09:49;;;;;;;12.18;2.80;;;;;;;12.25;84.76;100475.44;5029496;28;20125;-74
2022/11/09 03:12:28;;;;;;;6.95;2.20;;;;;;;12.26;84.77;100484.25;5012827;28;20032;-74
2022/11/09 03:14:58;;;;;;;9.53;2.10;;;;;;;12.27;84.44;100486.00;5026583;28;20431;-74
2022/11/09 03:17:23;;;;;;;6.55;2.05;;;;;;;12.30;83.91;100493.88;5025634;28;20268;-74
2022/11/09 03:19:50;;;;;;;8.77;2.30;;;;;;;12.32;83.82;100507.09;5016042;28;20098;-75
2022/11/09 03:22:16;;;;;;;11.40;2.25;;;;;;;12.31;83.56;100508.84;5030577;28;20032;-74
2022/11/09 03:24:44;;;;;;;8.93;2.08;;;;;;;12.37;82.98;100515.78;5027268;28;20480;-74
2022/11/09 03:27:10;;;;;;;11.63;2.10;;;;;;;12.35;82.55;100509.63;5049421;28;20131;-75
2022/11/09 03:29:36;;;;;;;9.60;2.67;;;;;;;12.37;82.38;100500.69;5048492;28;20560;-74
2022/11/09 03:32:02;;;;;;;9.32;2.33;;;;;;;12.38;82.46;100509.53;5049049;28;20094;-75
2022/11/09 03:34:28;;;;;;;13.38;3.25;;;;;;;12.34;82.40;100508.78;5049401;28;20116;-75
2022/11/09 03:36:54;;;;;;;7.82;2.42;;;;;;;12.36;82.98;100512.22;5021807;28;20141;-75
2022/11/09 03:39:21;;;;;;;9.07;2.10;;;;;;;12.33;82.40;100522.09;5031529;28;20364;-74
2022/11/09 03:41:46;;;;;;;12.13;2.20;;;;;;;12.30;82.90;100517.75;5029407;28;20071;-74
2022/11/09 03:44:12;;;;;;;7.78;2.08;;;;;;;12.28;82.77;100522.25;5049482;28;20444;-74
2022/11/09 03:46:37;;;;;;;9.98;2.63;;;;;;;12.24;83.35;100529.47;5033199;28;20044;-74
2022/11/09 03:49:03;;;;;;;6.18;2.05;;;;;;;12.21;83.36;100534.00;5049036;28;20041;-74
2022/11/09 03:51:28;;;;;;;8.55;2.20;;;;;;;12.20;83.73;100542.88;5046731;28;20516;-75
2022/11/09 03:53:54;;;;;;;10.88;2.53;;;;;;;12.20;83.54;100546.41;5033203;28;20124;-74
2022/11/09 03:56:19;;;;;;;15.63;2.47;;;;;;;12.21;83.50;100541.97;5020871;28;20381;-74
2022/11/09 03:58:45;;;;;;;14.55;2.65;;;;;;;12.17;83.93;100554.47;5039302;28;20037;-74
2022/11/09 04:01:10;;;;;;;11.50;2.85;;;;;;;12.14;84.16;100556.34;5048923;28;20397;-75
2022/11/09 04:03:36;;;;;;;9.43;2.25;;;;;;;12.13;84.52;100551.97;5041338;28;20171;-81
2022/11/09 04:06:02;;;;;;;12.18;2.60;;;;;;;12.08;84.66;100559.22;5012187;28;20042;-81
2022/11/09 04:08:27;;;;;;;8.75;2.25;;;;;;;12.05;84.75;100558.38;5020824;28;20031;-81
2022/11/09 04:10:53;;;;;;;13.45;2.55;;;;;;;12.00;85.05;100562.97;5031631;28;20140;-80
2022/11/09 04:13:18;;;;;;;13.75;3.08;;;;;;;11.98;85.59;100562.16;5030902;28;20410;-81
2022/11/09 04:15:43;;;;;;;11.50;2.85;;;;;;;11.98;85.66;100571.91;5044774;28;20048;-81
2022/11/09 04:18:13;;;;;;;11.35;2.47;;;;;;;11.93;86.04;100573.84;5025865;28;20014;-80
2022/11/09 04:20:39;;;;;;;9.88;2.70;;;;;;;11.88;86.18;100573.13;5029556;28;20048;-81
2022/11/09 04:23:06;;;;;;;11.07;2.28;;;;;;;11.81;86.45;100567.97;5043033;28;20052;-81
2022/11/09 04:25:34;;;;;;;12.88;2.50;;;;;;;11.78;86.91;100580.47;5037285;28;20124;-81
2022/11/09 04:28:01;;;;;;;11.15;2.45;;;;;;;11.79;86.78;100583.09;5036502;28;20469;-81
2022/11/09 04:30:28;;;;;;;11.43;2.13;;;;;;;11.81;87.19;100586.53;5033963;28;20033;-81
2022/11/09 04:32:55;;;;;;;11.95;2.75;;;;;;;11.81;87.22;100581.22;5033597;28;20049;-81
2022/11/09 04:35:20;;;;;;;12.80;2.53;;;;;;;11.80;86.95;100583.94;5027838;28;20061;-81
2022/11/09 04:38:12;;;;;;;12.88;2.85;;;;;;;11.82;87.18;100590.09;5032636;28;20025;-81
2022/11/09 04:40:38;;;;;;;9.68;2.10;;;;;;;11.83;86.97;100591.81;5040544;28;20084;-80
2022/11/09 04:43:06;;;;;;;8.98;2.13;;;;;;;11.82;87.29;100590.09;5050374;28;20155;-81
2022/11/09 04:45:33;;;;;;;17.70;3.30;;;;;;;11.78;87.17;100585.78;5038309;28;20024;-81
2022/11/09 04:48:03;;;;;;;5.97;1.80;;;;;;;11.75;87.32;100588.53;5044561;28;20121;-81
2022/11/09 04:50:29;;;;;;;9.97;2.20;;;;;;;11.75;87.64;100591.19;5023449;28;20500;-81
2022/11/09 04:53:10;;;;;;;11.57;2.10;;;;;;;11.72;87.41;100588.59;5033730;28;20026;-81
2022/11/09 04:55:36;;;;;;;11.23;2.88;;;;;;;11.69;87.23;100578.94;5034339;28;20371;-81
2022/11/09 04:58:02;;;;;;;14.27;2.35;;;;;;;11.66;87.74;100584.34;5037291;28;20030;-81
2022/11/09 05:00:28;;;;;;;12.02;2.20;;;;;;;11.63;88.29;100582.66;5032661;28;20052;-81
2022/11/09 05:02:53;;;;;;;11.60;2.53;;;;;;;11.60;87.86;100585.41;5034229;28;20028;-81
2022/11/09 05:05:18;;;;;;;10.88;2.63;;;;;;;11.59;88.36;100573.06;5032513;28;20437;-80
2022/11/09 05:07:44;;;;;;;11.02;2.50;;;;;;;11.59;88.30;100586.31;5039139;28;20053;-81
2022/11/09 05:10:09;;;;;;;14.77;3.78;;;;;;;11.56;88.47;100594.38;5042605;28;20033;-80
2022/11/09 05:12:35;;;;;;;11.73;2.30;;;;;;;11.54;88.59;100585.59;5038619;28;20696;-81
2022/11/09 05:15:00;;;;;;;9.98;2.38;;;;;;;11.52;89.48;100589.19;5044544;28;20552;-81
2022/11/09 05:17:26;;;;;;;14.00;2.50;;;;;;;11.48;88.69;100582.28;5032673;28;20406;-81
2022/11/09 05:19:51;;;;;;;9.10;2.42;;;;;;;11.44;89.11;100597.38;5035305;28;20124;-81
2022/11/09 05:25:01;;;;;;;9.82;2.53;;;;;;;11.37;89.87;100582.56;5035380;28;20123;-81
2022/11/09 05:27:26;;;;;;;11.52;3.05;;;;;;;11.32;89.32;100577.41;5033416;28;20127;-81
2022/11/09 05:29:52;;;;;;;14.88;2.40;;;;;;;11.28;89.90;100580.22;5033666;28;20055;-81
2022/11/09 05:32:17;;;;;;;12.38;2.67;;;;;;;11.25;89.76;100589.13;5021682;28;20025;-81
2022/11/09 05:34:42;;;;;;;10.55;2.50;;;;;;;11.25;89.95;100594.41;5052153;28;20369;-81
2022/11/09 05:37:08;;;;;;;11.63;2.20;;;;;;;11.23;90.14;100592.72;5035308;28;20033;-81
2022/11/09 05:39:33;;;;;;;16.98;4.13;;;;;;;11.24;90.13;100599.75;5015516;28;20088;-81
2022/11/09 05:41:59;;;;;;;12.85;2.95;;;;;;;11.23;90.45;100590.94;5013585;28;20064;-80
2022/11/09 05:44:24;;;;;;;14.95;2.53;;;;;;;11.20;90.87;100596.31;5027866;28;20025;-81
2022/11/09 05:46:50;;;;;;;11.35;2.70;;;;;;;11.19;90.61;100598.09;5053119;28;20447;-81
2022/11/09 05:49:15;;;;;;;14.93;3.17;;;;;;;11.17;90.75;100583.16;5032062;28;20021;-81
2022/11/09 05:51:40;;;;;;;16.70;2.90;;;;;;;11.18;90.85;100592.84;5031929;28;20064;-81
2022/11/09 05:54:07;;;;;;;12.95;2.78;;;;;;;11.16;91.04;100594.66;5031709;28;20105;-81
2022/11/09 05:56:32;;;;;;;10.07;2.90;;;;;;;11.14;91.20;100594.69;5033196;28;20060;-81
2022/11/09 05:58:58;;;;;;;10.65;2.67;;;;;;;11.14;91.46;100591.19;5046857;28;20472;-80
2022/11/09 06:01:24;;;;;;;11.10;2.13;;;;;;;11.13;91.62;100590.31;5039296;28;20055;-81
2022/11/09 06:03:53;;;;;;;10.80;2.13;;;;;;;11.09;91.08;100588.66;5037815;28;20133;-81
2022/11/09 06:06:18;;;;;;;11.77;2.65;;;;;;;11.11;91.85;100594.78;5017688;28;20021;-81
2022/11/09 06:08:44;;;;;;;13.00;3.08;;;;;;;11.09;91.44;100591.31;5043974;28;20477;-81
2022/11/09 06:11:11;;;;;;;14.55;2.63;;;;;;;11.04;91.74;100597.66;5029800;28;20017;-81
2022/11/09 06:13:36;;;;;;;11.95;2.53;;;;;;;11.02;92.01;100600.34;5027750;28;20124;-80
2022/11/09 06:16:04;;;;;;;18.65;2.97;;;;;;;10.95;91.70;100594.38;5030487;28;20105;-81
2022/11/09 06:18:31;;;;;;;17.15;2.35;;;;;;;10.91;92.48;100595.34;5023842;28;20041;-81
2022/11/09 06:20:59;;;;;;;16.45;3.25;;;;;;;10.91;92.24;100600.66;5025086;28;20060;-81
2022/11/09 06:23:25;;;;;;;10.73;2.90;;;;;;;10.89;92.39;100605.13;5037199;28;20026;-81
2022/11/09 06:26:02;;;;;;;15.52;3.70;;;;;;;10.88;92.59;100611.34;5040260;28;20101;-80
2022/11/09 06:28:28;;;;;;;11.40;2.47;;;;;;;10.88;92.46;100624.59;5050780;28;20049;-81
2022/11/09 06:30:57;;;;;;;11.07;2.70;;;;;;;10.87;92.41;100611.38;5043272;28;20487;-81
2022/11/09 06:33:23;;;;;;;14.80;2.47;;;;;;;10.84;92.72;100612.31;5032771;28;20323;-81
2022/11/09 06:35:49;;;;;;;12.55;2.60;;;;;;;10.82;93.03;100611.47;5043181;28;20432;-81
2022/11/09 06:38:14;;;;;;;12.90;2.83;;;;;;;10.81;93.17;100614.19;5019420;28;20033;-81
2022/11/09 06:40:40;;;;;;;12.75;2.60;;;;;;;10.80;93.03;100617.72;5030939;28;20033;-81
2022/11/09 06:43:05;;;;;;;12.60;2.47;;;;;;;10.87;92.65;100622.81;5039326;28;20049;-81
2022/11/09 06:45:32;;;;;;;10.48;2.38;;;;;;;10.84;93.17;100619.41;5028231;28;20026;-80
2022/11/09 06:47:59;;;;;;;9.43;2.65;;;;;;;10.83;93.20;100617.63;5019181;28;20362;-80
2022/11/09 06:50:26;;;;;;;17.30;2.40;;;;;;;10.84;93.48;100622.06;5027547;28;20446;-81
2022/11/09 06:52:58;;;;;;;11.40;2.60;;;;;;;10.82;93.41;100618.56;5031184;28;20033;-81
2022/11/09 06:55:26;;;;;;;14.35;2.90;;;;;;;10.82;93.51;100621.22;5029971;28;20065;-81
2022/11/09 06:57:51;;;;;;;15.88;2.65;;;;;;;10.85;93.60;100629.06;5030318;28;20500;-81
2022/11/09 07:00:17;;;;;;;12.88;2.70;;;;;;;10.87;93.15;100628.13;5007116;28;20151;-80
2022/11/09 07:02:42;;;;;;;15.32;2.70;;;;;;;10.87;93.41;100633.41;5033923;28;20017;-81
2022/11/09 07:05:08;;;;;;;15.43;3.17;;;;;;;10.89;93.61;100625.44;5009018;28;20392;-81
2022/11/09 07:07:33;;;;;;;17.42;2.40;;;;;;;10.93;93.47;100629.75;5018182;28;20501;-81
2022/11/09 07:09:59;;;;;;;9.38;2.72;;;;;;;10.90;93.22;100629.81;5024000;28;20038;-81
2022/11/09 07:12:24;;;;;;;10.10;2.60;;;;;;;10.88;93.51;100634.28;5020937;28;20021;-81
2022/11/09 07:14:50;;;;;;;13.77;2.90;;;;;;;10.88;93.76;100643.13;5032079;28;20120;-81
2022/11/09 07:17:15;;;;;;;19.88;2.72;;;;;;;10.89;93.48;100644.00;5028113;28;20036;-81
2022/11/09 07:19:41;;;;;;;13.93;2.78;;;;;;;10.90;93.68;100640.41;5025689;28;20511;-81
2022/11/09 07:22:06;;;;;;;14.05;3.00;;;;;;;10.89;93.62;100639.56;5037201;28;20029;-81
2022/11/09 07:24:31;;;;;;;9.73;2.20;;;;;;;10.93;93.59;100656.25;5032995;28;20041;-81
2022/11/09 07:26:57;;;;;;;16.05;3.80;;;;;;;10.97;93.21;100649.94;5014120;28;20350;-81
2022/11/09 07:29:22;;;;;;;16.50;3.22;;;;;;;10.94;93.48;100653.53;5034631;28;20416;-80
2022/11/09 07:31:48;;;;;;;16.30;2.70;;;;;;;10.97;93.21;100650.81;5033126;28;20026;-81
2022/11/09 07:34:14;;;;;;;21.45;3.10;;;;;;;10.99;92.70;100653.44;5037907;28;20037;-81
2022/11/09 07:36:39;;;;;;;12.95;2.55;;;;;;;10.98;92.88;100654.34;5030069;28;20385;-81
2022/11/09 07:39:05;;;;;;;12.10;2.58;;;;;;;10.97;93.20;100637.56;5031673;28;20037;-81
2022/11/09 07:41:30;;;;;;;12.05;2.80;;;;;;;11.02;92.77;100649.81;5039854;28;20079;-81
2022/11/09 07:43:57;;;;;;;11.02;2.28;;;;;;;11.04;92.81;100653.31;5027919;28;20082;-81
2022/11/09 07:46:22;;;;;;;10.68;2.33;;;;;;;11.08;92.16;100647.88;5035938;28;20116;-80
2022/11/09 07:48:48;;;;;;;14.15;2.70;;;;;;;11.09;91.79;100649.63;5035971;28;20459;-80
2022/11/09 07:51:13;;;;;;;11.45;2.30;;;;;;;11.06;92.29;100656.78;5034437;28;20465;-81
2022/11/09 07:53:39;;;;;;;10.02;2.45;;;;;;;11.08;92.37;100657.63;5033412;28;20094;-81
2022/11/09 07:56:05;;;;;;;13.88;2.72;;;;;;;11.11;92.05;100662.84;5040199;28;20045;-81
2022/11/09 07:58:31;;;;;;;12.02;2.72;;;;;;;11.10;92.08;100663.72;5018682;28;20030;-81
2022/11/09 08:00:57;;;;;;;9.23;2.22;;;;;;;11.16;92.03;100661.78;5029665;28;20025;-81
2022/11/09 08:03:23;;;;;;;11.98;3.38;;;;;;;11.12;91.84;100668.06;5013833;28;20048;-81
2022/11/09 08:05:49;;;;;;;15.57;2.92;;;;;;;11.13;92.19;100675.13;5029462;28;20061;-81
2022/11/09 08:08:15;;;;;;;11.07;2.78;;;;;;;11.13;92.00;100674.28;5018473;28;20033;-81
2022/11/09 08:10:42;;;;;;;9.15;2.40;;;;;;;11.14;91.72;100676.88;5027056;28;20033;-81
2022/11/09 08:13:13;;;;;;;11.52;2.40;;;;;;;11.14;91.65;100676.00;5038319;28;20160;-81
2022/11/09 08:15:39;;;;;;;;;;;;;;;11.30;90.91;100682.63;5007430;28;20355;-82
2022/11/09 08:18:09;;;;;;;12.35;2.60;;;;;;;11.20;91.23;100675.81;5030587;28;19909;-81
2022/11/09 08:20:34;;;;;;;12.27;2.58;;;;;;;11.23;91.89;100682.84;5035374;28;20029;-81
2022/11/09 08:23:00;;;;;;;9.48;2.50;;;;;;;11.26;91.60;100690.72;5034000;28;20441;-81
2022/11/09 08:25:26;;;;;;;11.38;3.00;;;;;;;11.30;91.26;100702.94;5041246;28;20037;-80
2022/11/09 08:27:51;;;;;;;14.65;2.65;;;;;;;11.38;90.64;100693.03;5043375;28;20060;-81
2022/11/09 08:30:19;;;;;;;14.93;2.83;;;;;;;11.42;90.82;100705.25;5047824;28;20053;-81
2022/11/09 08:32:46;;;;;;;10.73;2.95;;;;;;;11.48;90.51;100701.59;5044884;28;20025;-81
2022/11/09 08:35:16;;;;;;;11.60;2.45;;;;;;;11.53;90.20;100708.50;5032448;28;20446;-81
2022/11/09 08:37:43;;;;;;;12.30;2.17;;;;;;;11.62;89.65;100712.66;5026704;28;20125;-81
2022/11/09 08:40:09;;;;;;;11.05;2.50;;;;;;;11.66;90.25;100714.31;5029814;28;20029;-81
2022/11/09 08:42:34;;;;;;;12.80;2.67;;;;;;;11.72;89.97;100711.53;5021820;28;20072;-81
2022/11/09 08:45:00;;;;;;;13.02;2.80;;;;;;;11.76;89.53;100710.50;5036860;28;20048;-81
2022/11/09 08:47:26;;;;;;;11.38;2.83;;;;;;;11.81;89.31;100705.91;5041685;28;20122;-81
2022/11/09 08:49:52;;;;;;;10.80;2.47;;;;;;;11.91;88.51;100708.34;5033562;28;20032;-81
2022/11/09 08:52:17;;;;;;;10.95;3.17;;;;;;;11.93;88.37;100718.00;5025088;28;20041;-80
2022/11/09 08:54:43;;;;;;;10.32;2.65;;;;;;;11.95;88.72;100721.50;5026537;28;20124;-81
2022/11/09 08:57:08;;;;;;;10.27;2.60;;;;;;;11.98;87.97;100717.88;5028833;28;20041;-81
2022/11/09 08:59:34;;;;;;;13.75;2.55;;;;;;;11.94;87.79;100719.75;5020346;28;20095;-82
2022/11/09 09:02:00;;;;;;;11.07;2.65;;;;;;;11.96;87.42;100723.22;5046565;28;20040;-80
2022/11/09 09:04:25;;;;;;;14.20;3.03;;;;;;;11.98;86.72;100718.72;5035031;28;20485;-81
2022/11/09 09:06:51;;;;;;;14.73;2.67;;;;;;;12.00;86.25;100716.91;5016804;28;20053;-80
2022/11/09 09:09:16;;;;;;;9.93;2.65;;;;;;;12.04;86.63;100717.69;5020505;28;20046;-81
2022/11/09 09:11:42;;;;;;;11.82;2.95;;;;;;;12.14;85.74;100711.19;5039038;28;20486;-80
2022/11/09 09:14:08;;;;;;;15.25;2.85;;;;;;;12.12;86.54;100706.84;5019788;28;20109;-81
2022/11/09 09:16:33;;;;;;;11.68;3.10;;;;;;;12.16;86.62;100712.00;5023156;28;20489;-80
2022/11/09 09:18:59;;;;;;;12.32;3.08;;;;;;;12.20;85.35;100707.47;5033104;28;20529;-80
2022/11/09 09:21:24;;;;;;;15.18;3.03;;;;;;;12.22;86.23;100714.47;5035567;28;20025;-81
2022/11/09 09:23:50;;;;;;;12.27;2.75;;;;;;;12.33;84.37;100713.28;5032702;28;20034;-80
2022/11/09 09:26:16;;;;;;;16.15;3.10;;;;;;;12.31;84.26;100712.44;5027157;28;20037;-80
2022/11/09 09:28:42;;;;;;;13.27;2.92;;;;;;;12.34;83.84;100720.31;5022356;28;20050;-80
2022/11/09 09:31:07;;;;;;;9.70;2.65;;;;;;;12.33;84.23;100719.44;5022009;28;20084;-80
2022/11/09 09:33:33;;;;;;;10.15;2.63;;;;;;;12.39;84.79;100723.72;5025716;28;20067;-80
2022/11/09 09:35:59;;;;;;;13.52;3.17;;;;;;;12.46;83.72;100725.25;5025631;28;20034;-80
2022/11/09 09:38:25;;;;;;;16.45;2.90;;;;;;;12.48;83.14;100729.59;5032191;28;20137;-80
2022/11/09 09:40:53;;;;;;;8.65;2.60;;;;;;;12.50;82.34;100737.50;5031955;28;20100;-80
2022/11/09 09:43:43;;;;;;;15.02;2.88;;;;;;;12.48;82.64;100732.25;5040761;28;20432;-81
2022/11/09 09:46:34;;;;;;;11.77;2.65;;;;;;;12.51;82.03;100725.97;5031215;28;20041;-81
2022/11/09 09:49:10;;;;;;;11.90;2.97;;;;;;;12.57;81.69;100746.16;5043866;28;20426;-80
2022/11/09 09:51:44;;;;;;;13.57;2.40;;;;;;;12.57;82.02;100740.84;5017446;28;20076;-80
2022/11/09 09:54:40;;;;;;;14.85;3.05;;;;;;;12.63;81.89;100746.81;5012922;28;20040;-81
2022/11/09 09:57:17;;;;;;;9.05;2.08;;;;;;;12.68;81.04;100749.34;5025017;28;20077;-81
2022/11/09 09:59:46;;;;;;;13.38;2.42;;;;;;;12.69;81.29;100765.25;5033720;28;20057;-81
2022/11/09 10:02:23;;;;;;;12.10;2.65;;;;;;;12.76;81.23;100760.63;5033238;28;20072;-81
2022/11/09 10:04:50;;;;;;;13.18;2.80;;;;;;;12.77;80.28;100765.00;5031209;28;20454;-81
2022/11/09 10:07:26;;;;;;;12.07;3.03;;;;;;;12.80;79.80;100769.34;5029131;28;20033;-81
2022/11/09 10:09:57;;;;;;;10.65;2.78;;;;;;;12.85;79.63;100759.44;5019846;28;20029;-80
2022/11/09 10:12:22;;;;;;;;;;;;;;;12.95;80.03;100758.19;5038919;28;20037;-81
2022/11/09 10:14:56;;;;;;;11.60;3.08;;;;;;;12.97;79.03;100776.78;5036211;28;20254;-81
2022/11/09 10:17:39;;;;;;;7.10;2.17;;;;;;;12.94;78.23;100767.09;5037666;28;20156;-81
2022/11/09 10:20:29;;;;;;;9.68;2.22;;;;;;;12.96;78.51;100756.41;5040084;28;20033;-81
2022/11/09 10:22:57;;;;;;;10.20;2.33;;;;;;;13.03;78.01;100765.91;5033565;28;20540;-81
2022/11/09 10:25:25;;;;;;;13.90;2.50;;;;;;;13.11;76.88;100764.75;5045662;28;20021;-80
2022/11/09 10:28:03;;;;;;;5.97;2.25;;;;;;;13.18;76.86;100757.47;5039554;28;20401;-81
2022/11/09 10:30:29;;;;;;;16.63;3.22;;;;;;;13.16;77.15;100761.94;5033990;28;20037;-81
2022/11/09 10:32:58;;;;;;;12.82;2.58;;;;;;;13.23;77.13;100765.25;5032585;28;20034;-80
2022/11/09 10:35:35;;;;;;;9.65;2.00;;;;;;;13.33;77.04;100766.72;5033273;28;20029;-80
2022/11/09 10:38:01;;;;;;;11.20;2.35;;;;;;;13.30;75.39;100773.03;5039052;28;20071;-81
2022/11/09 10:40:31;;;;;;;13.18;2.42;;;;;;;13.28;76.02;100766.88;5031728;28;20404;-81
2022/11/09 10:43:16;;;;;;;11.85;2.47;;;;;;;13.26;76.88;100774.00;5031813;28;20051;-80
2022/11/09 10:46:04;;;;;;;8.15;2.08;;;;;;;13.27;75.82;100773.09;5031117;28;20099;-81
2022/11/09 10:48:48;;;;;;;16.98;3.22;;;;;;;13.37;74.83;100775.47;5030339;28;20051;-81
2022/11/09 10:51:41;;;;;;;11.23;2.50;;;;;;;13.39;75.34;100785.13;5023510;28;20521;-81
2022/11/09 10:54:30;;;;;;;10.82;2.13;;;;;;;13.34;74.36;100785.28;5021462;28;20084;-81
2022/11/09 10:57:22;;;;;;;8.55;2.08;;;;;;;13.22;75.36;100793.63;5021193;28;20502;-81
2022/11/09 11:00:15;;;;;;;11.65;2.33;;;;;;;13.13;74.73;100781.53;5021170;28;20056;-81
2022/11/09 11:03:09;;;;;;;6.65;2.03;;;;;;;13.11;75.21;100787.81;5032325;28;20048;-81
2022/11/09 11:06:03;;;;;;;11.10;2.22;;;;;;;13.06;75.45;100795.94;5032581;28;20055;-81
2022/11/09 11:08:49;;;;;;;10.40;3.00;;;;;;;13.07;76.01;100789.69;5032010;28;20480;-80
2022/11/09 11:11:36;;;;;;;13.05;3.10;;;;;;;13.11;73.92;100790.47;5029739;28;20095;-81
2022/11/09 11:14:33;;;;;;;12.35;2.17;;;;;;;13.17;73.81;100800.91;5031589;28;20052;-80
2022/11/09 11:17:34;;;;;;;14.30;2.00;;;;;;;13.20;74.11;100797.28;5030439;28;20114;-80
2022/11/09 11:20:29;;;;;;;13.30;2.53;;;;;;;13.20;74.21;100803.44;5034649;28;20477;-74
2022/11/09 11:23:18;;;;;;;9.32;2.10;;;;;;;13.18;73.31;100785.81;5034450;28;20641;-74
2022/11/09 11:26:22;;;;;;;11.30;1.90;;;;;;;13.19;73.98;100792.88;5026189;28;20075;-74
2022/11/09 11:29:28;;;;;;;10.45;2.42;;;;;;;13.16;74.24;100787.69;5026719;28;20132;-74
2022/11/09 11:32:15;;;;;;;8.00;1.52;;;;;;;13.19;73.99;100795.53;5025849;28;20172;-74